Villa Alemana, Chile
Current Conditions -  °F | °C
As of 9:00 PM on Tuesday 21 Oct 2014 (Local Time) from SCVM Reporting Station
Haze Haze  
Wind Chill: 12°   Ceiling: 800
Heat Index: 12°   Visibility: 1.2mi
Dew Point: 12°   Wind: 2mph
Humidity: 100%   Direction: 270°W
Pressure: 30.03"   Gusts: NA
Location:  33.04°S, 71.36°W
Report Text: SCVM 220100Z 27002KT 2000 BR OVC008 12/12 Q1017
Loading
Personal Weather Stations






























Interactive Weather Map
Tropical Storm Tracking
New forecast layout! Learn more

10-Day Weather Forecast

Advertisements
Track Severe Weather on mobile